Time;durP1;ratioP1;P1;durP2;ratioP2;P2;SDS_P1;SDS_P2;PMS_P1;PMS_P2;Temp;Humidity;BMP_temperature;BMP_pressure;BME280_temperature;BME280_humidity;BME280_pressure;Samples;Min_cycle;Max_cycle;Signal;HPM_P1;HPM_P2
2022/06/13 00:01:52;;;;;;;1.13;1.08;;;;;;;18.34;63.99;99667.00;4996348;28;20494;-66
2022/06/13 00:04:21;;;;;;;0.73;0.70;;;;;;;18.31;64.13;99664.50;4996350;28;20074;-66
2022/06/13 00:07:09;;;;;;;0.60;0.60;;;;;;;18.29;64.15;99657.69;4996570;28;20342;-66
2022/06/13 00:09:38;;;;;;;0.50;0.50;;;;;;;18.26;64.00;99666.41;4995992;28;20105;-66
2022/06/13 00:12:07;;;;;;;0.90;0.90;;;;;;;18.23;64.63;99657.91;4996419;28;20097;-66
2022/06/13 00:14:38;;;;;;;1.02;0.95;;;;;;;18.11;64.67;99661.75;4996019;28;20046;-66
2022/06/13 00:17:07;;;;;;;1.20;1.10;;;;;;;17.96;65.33;99651.88;4996299;28;20521;-66
2022/06/13 00:19:36;;;;;;;0.83;0.83;;;;;;;17.76;65.92;99641.31;4996289;28;20086;-66
2022/06/13 00:22:05;;;;;;;2.03;1.23;;;;;;;17.61;66.59;99645.19;4996488;28;20046;-66
2022/06/13 00:24:35;;;;;;;1.38;1.27;;;;;;;17.40;67.13;99635.47;4996022;28;20043;-66
2022/06/13 00:27:05;;;;;;;1.00;0.90;;;;;;;17.19;67.77;99629.19;4995881;28;20038;-66
2022/06/13 00:29:34;;;;;;;1.17;1.05;;;;;;;16.94;68.53;99633.34;4995783;28;20050;-66
2022/06/13 00:32:04;;;;;;;0.90;0.88;;;;;;;16.93;69.02;99631.66;4995785;28;20042;-66
2022/06/13 00:34:33;;;;;;;0.47;0.47;;;;;;;17.09;69.03;99635.50;4995731;28;20050;-66
2022/06/13 00:37:02;;;;;;;1.17;0.87;;;;;;;17.20;68.44;99638.59;4995923;28;20042;-67
2022/06/13 00:39:31;;;;;;;1.10;1.00;;;;;;;17.09;68.88;99635.50;4995854;28;20272;-66
2022/06/13 00:42:00;;;;;;;1.70;1.60;;;;;;;16.96;69.26;99626.44;4995570;28;20047;-66
2022/06/13 00:44:31;;;;;;;0.68;0.68;;;;;;;16.84;69.62;99633.66;4995325;28;20054;-66
2022/06/13 00:47:01;;;;;;;0.60;0.60;;;;;;;16.73;69.89;99631.34;4995378;28;20045;-66
2022/06/13 00:49:38;;;;;;;0.63;0.63;;;;;;;16.65;70.11;99628.13;4995726;28;20080;-66
2022/06/13 00:52:13;;;;;;;0.70;0.70;;;;;;;16.55;70.75;99624.09;4995424;28;20051;-66
2022/06/13 00:54:44;;;;;;;0.70;0.68;;;;;;;16.46;71.13;99621.72;4995251;28;20050;-66
2022/06/13 00:57:16;;;;;;;1.02;0.85;;;;;;;16.35;71.76;99628.88;4995623;28;20049;-66
2022/06/13 00:59:46;;;;;;;1.33;1.23;;;;;;;16.19;72.08;99604.38;4995317;28;20125;-65
2022/06/13 01:02:15;;;;;;;9.48;1.27;;;;;;;16.21;72.19;99610.34;4995228;28;20128;-66
2022/06/13 01:04:47;;;;;;;1.03;0.80;;;;;;;16.21;72.30;99620.63;4995160;28;20050;-66
2022/06/13 01:07:17;;;;;;;1.20;1.00;;;;;;;16.15;72.64;99618.22;4995013;28;20384;-65
2022/06/13 01:12:24;;;;;;;0.70;0.70;;;;;;;16.02;72.84;99610.78;4995023;28;20052;-65
2022/06/13 01:15:11;;;;;;;1.15;1.02;;;;;;;15.97;72.83;99607.47;4995215;28;20049;-66
2022/06/13 01:17:52;;;;;;;0.85;0.82;;;;;;;15.94;73.19;99609.25;4995092;28;20078;-66
2022/06/13 01:20:50;;;;;;;0.63;0.63;;;;;;;15.97;72.88;99592.03;4994865;28;20054;-66
2022/06/13 01:23:40;;;;;;;0.98;0.90;;;;;;;16.01;73.19;99596.22;4995022;28;20134;-66
2022/06/13 01:26:40;;;;;;;0.95;0.80;;;;;;;16.18;72.59;99589.78;4995056;28;20507;-66
2022/06/13 01:29:31;;;;;;;1.75;0.80;;;;;;;16.33;72.43;99592.00;4974620;28;20052;-66
2022/06/13 01:32:10;;;;;;;1.20;1.08;;;;;;;16.44;72.27;99598.56;4995008;28;20066;-66
2022/06/13 01:34:52;;;;;;;1.20;1.10;;;;;;;16.52;71.92;99591.53;4995163;28;20500;-66
2022/06/13 01:37:35;;;;;;;0.80;0.80;;;;;;;16.61;71.61;99600.72;4994843;28;20064;-66
2022/06/13 01:40:14;;;;;;;0.95;0.88;;;;;;;16.68;71.16;99599.69;4994571;28;20061;-66
2022/06/13 01:42:58;;;;;;;6.47;1.15;;;;;;;16.70;70.79;99591.03;4995122;28;20050;-66
2022/06/13 01:45:37;;;;;;;0.88;0.88;;;;;;;16.76;70.57;99584.88;4994482;28;20398;-66
2022/06/13 01:48:34;;;;;;;1.05;0.80;;;;;;;16.81;70.35;99587.31;4994616;28;20046;-67
2022/06/13 01:51:14;;;;;;;0.90;0.90;;;;;;;16.83;69.97;99588.97;4982149;28;20137;-66
2022/06/13 01:54:17;;;;;;;0.80;0.80;;;;;;;16.82;69.80;99581.28;4994963;28;20053;-66
2022/06/13 01:56:54;;;;;;;0.68;0.68;;;;;;;16.83;69.94;99581.22;4994232;28;20058;-66
2022/06/13 01:59:31;;;;;;;1.00;0.90;;;;;;;16.87;69.21;99582.81;4994253;28;20050;-67
2022/06/13 02:02:08;;;;;;;1.05;0.95;;;;;;;16.58;68.80;99529.50;4994258;28;20078;-66
2022/06/13 02:04:46;;;;;;;0.70;0.70;;;;;;;16.86;68.90;99576.00;4994539;28;20056;-66
2022/06/13 02:07:21;;;;;;;1.52;1.42;;;;;;;16.81;68.93;99572.69;4993966;28;20042;-66
2022/06/13 02:09:56;;;;;;;1.25;1.00;;;;;;;16.72;69.18;99572.97;4994279;28;20082;-66
2022/06/13 02:12:28;;;;;;;0.85;0.85;;;;;;;16.65;69.15;99566.28;4994147;28;20050;-65
2022/06/13 02:15:00;;;;;;;0.40;0.40;;;;;;;16.52;69.47;99570.91;4994091;28;20046;-65
2022/06/13 02:17:33;;;;;;;1.05;0.95;;;;;;;16.41;70.25;99572.06;4976685;28;20398;-66
2022/06/13 02:20:10;;;;;;;0.70;0.68;;;;;;;16.50;70.49;99582.09;4994309;28;20069;-66
2022/06/13 02:22:51;;;;;;;1.15;1.05;;;;;;;16.55;70.37;99569.97;4997263;28;20054;-65
2022/06/13 02:25:23;;;;;;;4.20;2.05;;;;;;;16.46;70.16;99573.59;4998165;28;20054;-66
2022/06/13 02:27:57;;;;;;;1.42;1.33;;;;;;;16.31;70.59;99565.44;4998068;28;20042;-66
2022/06/13 02:30:31;;;;;;;1.17;0.90;;;;;;;16.21;70.80;99563.97;4998011;28;20482;-65
2022/06/13 02:33:06;;;;;;;1.25;1.15;;;;;;;16.13;70.91;99561.59;4997983;28;20061;-66
2022/06/13 02:35:42;;;;;;;0.50;0.50;;;;;;;16.12;71.10;99559.06;4997960;28;20533;-66
2022/06/13 02:38:17;;;;;;;0.63;0.63;;;;;;;16.19;71.14;99560.59;4998106;28;20498;-66
2022/06/13 02:40:52;;;;;;;1.30;0.60;;;;;;;16.25;70.49;99565.56;4997880;28;20055;-65
2022/06/13 02:43:26;;;;;;;1.95;1.50;;;;;;;16.27;70.59;99563.84;4998094;28;20203;-66
2022/06/13 02:46:09;;;;;;;1.17;0.95;;;;;;;16.31;70.26;99570.59;4997629;28;20046;-66
2022/06/13 02:48:55;;;;;;;1.08;0.98;;;;;;;16.31;70.23;99568.00;4997594;28;20137;-66
2022/06/13 02:51:38;;;;;;;0.65;0.65;;;;;;;16.34;70.18;99567.94;4997644;28;20049;-66
2022/06/13 02:54:13;;;;;;;0.70;0.70;;;;;;;16.36;69.74;99569.59;4997584;28;20050;-66
2022/06/13 02:59:43;;;;;;;1.30;1.17;;;;;;;16.44;69.59;99574.53;4997472;28;20046;-66
2022/06/13 03:02:19;;;;;;;0.75;0.75;;;;;;;16.32;69.50;99556.81;4980067;28;20532;-66
2022/06/13 03:04:56;;;;;;;0.80;0.80;;;;;;;16.41;69.51;99566.91;4997382;28;20133;-65
2022/06/13 03:07:36;;;;;;;1.48;1.13;;;;;;;16.46;69.55;99570.19;4997774;28;20402;-66
2022/06/13 03:10:21;;;;;;;0.65;0.65;;;;;;;16.49;69.11;99575.25;4978148;28;20043;-66
2022/06/13 03:12:59;;;;;;;0.60;0.60;;;;;;;16.47;69.22;99569.31;4978122;28;20491;-66
2022/06/13 03:15:42;;;;;;;1.08;1.00;;;;;;;16.44;69.15;99571.94;4978068;28;20047;-66
2022/06/13 03:18:27;;;;;;;2.30;1.23;;;;;;;16.41;69.76;99567.72;4977729;28;20046;-66
2022/06/13 03:21:03;;;;;;;0.60;0.60;;;;;;;16.47;69.76;99557.28;4977601;28;20106;-66
2022/06/13 03:23:41;;;;;;;1.27;0.98;;;;;;;16.32;69.43;99547.34;4977943;28;20078;-66
2022/06/13 03:26:15;;;;;;;0.60;0.60;;;;;;;16.44;69.99;99569.38;4977581;28;20054;-65
2022/06/13 03:28:59;;;;;;;0.73;0.73;;;;;;;16.43;70.07;99570.28;4977454;28;20077;-66
2022/06/13 03:31:34;;;;;;;1.38;0.95;;;;;;;16.35;70.63;99567.03;4977526;28;20042;-66
2022/06/13 03:34:11;;;;;;;0.95;0.90;;;;;;;16.41;70.70;99566.91;4977563;28;20176;-66
2022/06/13 03:36:44;;;;;;;1.30;1.20;;;;;;;16.40;70.80;99560.91;4977758;28;20450;-66
2022/06/13 03:39:18;;;;;;;1.13;1.02;;;;;;;16.49;70.62;99564.94;4977357;28;20055;-66
2022/06/13 03:41:51;;;;;;;1.33;1.23;;;;;;;16.61;70.71;99569.81;4977418;28;20118;-67
2022/06/13 03:44:25;;;;;;;2.22;1.52;;;;;;;16.70;70.49;99570.41;4977528;28;20410;-66
2022/06/13 03:46:57;;;;;;;4.57;3.25;;;;;;;16.81;70.33;99562.38;4977181;28;20554;-66
2022/06/13 03:49:32;;;;;;;1.63;1.52;;;;;;;16.93;69.93;99554.31;4977379;28;20465;-67
2022/06/13 03:52:04;;;;;;;1.02;0.80;;;;;;;17.06;69.66;99563.38;4977164;28;20043;-67
2022/06/13 03:54:41;;;;;;;0.60;0.60;;;;;;;17.15;69.18;99565.69;4977029;28;20046;-66
2022/06/13 03:57:19;;;;;;;0.60;0.60;;;;;;;17.26;68.90;99562.78;4977308;28;20502;-67
2022/06/13 03:59:55;;;;;;;0.77;0.77;;;;;;;17.28;69.26;99563.59;4976885;28;20051;-66
2022/06/13 04:02:28;;;;;;;0.90;0.90;;;;;;;17.29;69.25;99554.97;4977226;28;20047;-67
2022/06/13 04:05:00;;;;;;;1.77;1.08;;;;;;;17.38;68.73;99571.03;4976895;28;20059;-67
2022/06/13 04:07:34;;;;;;;1.95;1.80;;;;;;;17.45;68.76;99561.34;4976747;28;20142;-66
2022/06/13 04:10:07;;;;;;;7.72;1.08;;;;;;;17.56;68.83;99555.91;4995882;28;20062;-68
2022/06/13 04:12:52;;;;;;;1.00;0.90;;;;;;;17.54;68.90;99570.59;4996944;28;20054;-66
2022/06/13 04:15:48;;;;;;;0.50;0.50;;;;;;;17.62;68.74;99582.34;4996442;28;20050;-66
2022/06/13 04:18:49;;;;;;;0.70;0.70;;;;;;;17.76;68.66;99561.25;4995977;28;20102;-66
2022/06/13 04:21:27;;;;;;;1.33;1.20;;;;;;;17.87;68.20;99564.38;4990434;28;20046;-66
2022/06/13 04:24:08;;;;;;;0.98;0.88;;;;;;;17.99;67.97;99569.13;4996246;28;20408;-66
2022/06/13 04:26:53;;;;;;;0.73;0.73;;;;;;;18.15;67.55;99565.16;4996220;28;20047;-67
2022/06/13 04:29:30;;;;;;;0.80;0.80;;;;;;;18.26;67.29;99570.78;4996021;28;20513;-67
2022/06/13 04:32:03;;;;;;;0.70;0.70;;;;;;;18.40;67.02;99570.34;4995739;28;20112;-67
2022/06/13 04:34:43;;;;;;;0.82;0.82;;;;;;;18.53;66.68;99562.13;4996039;28;20049;-67
2022/06/13 04:37:13;;;;;;;1.27;0.80;;;;;;;18.68;66.08;99559.03;4995719;28;20495;-67
2022/06/13 04:39:44;;;;;;;1.83;1.25;;;;;;;18.77;65.77;99554.41;4995634;28;20210;-67
2022/06/13 04:42:16;;;;;;;0.80;0.75;;;;;;;18.91;65.19;99557.34;4995573;28;20061;-66
2022/06/13 04:44:49;;;;;;;1.08;0.70;;;;;;;19.02;64.74;99556.06;4946344;28;20049;-65
2022/06/13 04:47:18;;;;;;;1.40;1.30;;;;;;;19.19;64.72;99555.44;4995433;28;20061;-67
2022/06/13 04:49:49;;;;;;;;;;;;;;;19.32;64.30;99552.31;4995774;28;20050;-67
2022/06/13 04:52:24;;;;;;;0.60;0.60;;;;;;;19.46;64.26;99546.63;4995387;28;19949;-66
2022/06/13 04:54:59;;;;;;;1.70;1.17;;;;;;;19.56;63.61;99553.13;4995540;28;20054;-67
2022/06/13 04:57:30;;;;;;;0.68;0.68;;;;;;;19.73;63.48;99555.91;4995848;28;20398;-67
2022/06/13 04:59:59;;;;;;;0.90;0.70;;;;;;;19.89;63.07;99549.19;4995791;28;20043;-67
2022/06/13 05:02:37;;;;;;;0.95;0.88;;;;;;;20.08;62.63;99551.91;4994660;28;20050;-66
2022/06/13 05:05:22;;;;;;;1.08;1.00;;;;;;;20.15;62.37;99552.47;4995320;28;20070;-66
2022/06/13 05:07:51;;;;;;;1.05;0.90;;;;;;;20.25;61.62;99548.63;4995009;28;20410;-67
2022/06/13 05:10:26;;;;;;;0.50;0.50;;;;;;;20.36;61.21;99549.00;4995298;28;20046;-65
2022/06/13 05:12:57;;;;;;;0.80;0.80;;;;;;;20.23;61.09;99508.97;4994926;28;20064;-66
2022/06/13 05:15:31;;;;;;;0.73;0.73;;;;;;;20.65;60.89;99553.78;4995143;28;20097;-66
2022/06/13 05:18:30;;;;;;;0.65;0.65;;;;;;;20.79;60.63;99561.81;4977309;28;20497;-66
2022/06/13 05:21:17;;;;;;;1.23;1.13;;;;;;;20.92;60.24;99551.72;4989430;28;20046;-66
2022/06/13 05:24:14;;;;;;;0.60;0.60;;;;;;;20.96;60.09;99548.94;4994670;28;20050;-66
2022/06/13 05:26:43;;;;;;;1.23;1.00;;;;;;;21.07;59.61;99538.91;4970358;28;20069;-66
2022/06/13 05:29:13;;;;;;;1.00;0.90;;;;;;;21.17;59.04;99537.59;4994503;28;20070;-67
2022/06/13 05:31:43;;;;;;;0.70;0.68;;;;;;;21.26;59.06;99542.34;4995008;28;20406;-66
2022/06/13 05:34:22;;;;;;;0.65;0.65;;;;;;;21.43;58.48;99540.75;4994653;28;20101;-66
2022/06/13 05:36:50;;;;;;;0.88;0.77;;;;;;;21.56;57.93;99544.44;4994630;28;20042;-65
2022/06/13 05:39:19;;;;;;;1.00;0.90;;;;;;;21.66;57.56;99551.72;4994549;28;20046;-66
2022/06/13 05:41:48;;;;;;;0.50;0.50;;;;;;;21.90;57.76;99547.13;4994489;28;20045;-67
2022/06/13 05:44:20;;;;;;;1.27;0.90;;;;;;;22.19;57.72;99550.88;4994319;28;20073;-67
2022/06/13 05:46:49;;;;;;;1.42;1.33;;;;;;;22.22;57.33;99551.56;4993949;28;20050;-67
2022/06/13 05:49:18;;;;;;;2.08;1.15;;;;;;;22.08;56.72;99533.22;4994480;28;20046;-67
2022/06/13 05:51:47;;;;;;;0.68;0.68;;;;;;;22.14;56.55;99542.47;4993903;28;20046;-67
2022/06/13 05:54:16;;;;;;;1.50;0.77;;;;;;;21.95;56.75;99512.19;4994145;28;20046;-68
2022/06/13 05:56:45;;;;;;;2.35;1.35;;;;;;;22.13;56.97;99540.78;4993802;28;20073;-66
2022/06/13 05:59:14;;;;;;;3.27;1.53;;;;;;;22.13;56.52;99541.63;4977157;28;20494;-67
2022/06/13 06:01:44;;;;;;;0.70;0.70;;;;;;;22.18;56.36;99544.00;4994184;28;20043;-66
2022/06/13 06:04:16;;;;;;;1.13;1.02;;;;;;;22.24;56.22;99544.53;4994236;28;20086;-68
2022/06/13 06:06:45;;;;;;;1.17;0.80;;;;;;;22.32;56.39;99544.97;4993826;28;20097;-67
2022/06/13 06:09:17;;;;;;;0.70;0.70;;;;;;;22.42;56.24;99538.41;4993694;28;20395;-66
2022/06/13 06:11:46;;;;;;;0.65;0.65;;;;;;;22.52;56.40;99534.41;4994147;28;20062;-67
2022/06/13 06:14:25;;;;;;;0.60;0.60;;;;;;;22.56;56.13;99528.13;4993992;28;20050;-66
2022/06/13 06:16:55;;;;;;;1.77;0.83;;;;;;;22.56;55.56;99530.72;4994112;28;20133;-67
2022/06/13 06:19:26;;;;;;;0.47;0.47;;;;;;;22.60;55.51;99527.03;4994312;28;20306;-67
2022/06/13 06:21:55;;;;;;;0.65;0.65;;;;;;;22.71;55.58;99534.31;4994008;28;20057;-67
2022/06/13 06:24:32;;;;;;;1.48;1.17;;;;;;;22.81;55.25;99508.66;4994153;28;20049;-67
2022/06/13 06:27:03;;;;;;;1.10;0.90;;;;;;;23.04;54.96;99529.06;4993957;28;20138;-67
2022/06/13 06:29:32;;;;;;;0.98;0.95;;;;;;;23.12;55.50;99524.31;4994134;28;20138;-67
2022/06/13 06:32:03;;;;;;;0.65;0.60;;;;;;;23.36;55.35;99541.22;4993796;28;20121;-68
2022/06/13 06:34:32;;;;;;;1.50;1.02;;;;;;;23.51;55.13;99532.56;4993768;28;20073;-68
2022/06/13 06:37:00;;;;;;;0.80;0.80;;;;;;;23.63;54.84;99536.25;4994128;28;20391;-68
2022/06/13 06:39:29;;;;;;;0.68;0.68;;;;;;;23.63;54.48;99531.88;4994002;28;20306;-67
2022/06/13 06:41:58;;;;;;;0.75;0.73;;;;;;;23.73;53.81;99527.81;4993743;28;20045;-67
2022/06/13 06:44:28;;;;;;;1.20;1.10;;;;;;;23.74;53.15;99526.91;4976634;28;20593;-66
2022/06/13 06:47:10;;;;;;;0.98;0.73;;;;;;;23.81;52.75;99522.16;4993972;28;20137;-68
2022/06/13 06:49:39;;;;;;;0.52;0.52;;;;;;;23.89;52.49;99518.19;4994134;28;20034;-68
2022/06/13 06:52:09;;;;;;;1.90;0.77;;;;;;;23.89;52.20;99523.41;4993662;28;20490;-67
2022/06/13 06:59:57;;;;;;;0.93;0.93;;;;;;;24.22;51.17;99535.44;4993700;28;20046;-68
2022/06/13 07:02:29;;;;;;;0.95;0.93;;;;;;;24.34;50.88;99524.28;4993532;28;20097;-68
2022/06/13 07:05:01;;;;;;;0.60;0.60;;;;;;;24.48;51.08;99521.69;4988139;28;20047;-68
2022/06/13 07:07:30;;;;;;;0.80;0.75;;;;;;;24.70;51.05;99532.50;4975285;28;20053;-68
2022/06/13 07:09:59;;;;;;;0.75;0.60;;;;;;;24.92;50.68;99527.69;4977553;28;20047;-67
2022/06/13 07:12:28;;;;;;;0.57;0.50;;;;;;;24.79;50.81;99529.38;4977835;28;20047;-67
2022/06/13 07:14:57;;;;;;;0.60;0.60;;;;;;;24.51;50.86;99519.75;4977628;28;20134;-64
2022/06/13 07:17:27;;;;;;;1.45;1.20;;;;;;;24.22;51.01;99504.13;4977886;28;20502;-66
2022/06/13 07:19:56;;;;;;;0.47;0.47;;;;;;;24.27;51.92;99517.75;4977869;28;20502;-65
2022/06/13 07:22:27;;;;;;;1.00;0.85;;;;;;;24.20;51.43;99506.00;4977418;28;20126;-67
2022/06/13 07:24:56;;;;;;;2.10;0.80;;;;;;;24.21;51.43;99498.06;4977486;28;20130;-67
2022/06/13 07:27:24;;;;;;;0.60;0.60;;;;;;;24.17;51.43;99506.19;4977424;28;20090;-66
2022/06/13 07:29:53;;;;;;;2.20;0.90;;;;;;;24.03;51.70;99525.22;4977600;28;20057;-66
2022/06/13 07:32:26;;;;;;;0.60;0.60;;;;;;;23.99;52.34;99524.53;4977912;28;20038;-67
2022/06/13 07:34:57;;;;;;;1.17;1.08;;;;;;;24.24;52.46;99523.13;4977393;28;20375;-67
2022/06/13 07:40:12;;;;;;;1.42;0.60;;;;;;;24.88;52.66;99521.00;4996951;28;20502;-64
2022/06/13 07:42:44;;;;;;;0.60;0.60;;;;;;;25.02;52.67;99523.59;4996631;28;20138;-63
2022/06/13 07:45:17;;;;;;;0.60;0.60;;;;;;;25.18;51.99;99526.91;4996592;28;20046;-63
2022/06/13 07:48:07;;;;;;;0.70;0.70;;;;;;;25.41;51.29;99529.84;4995490;28;20502;-63
2022/06/13 07:50:37;;;;;;;0.80;0.80;;;;;;;25.59;51.07;99528.69;4992964;28;20042;-64
2022/06/13 07:53:08;;;;;;;4.43;1.05;;;;;;;25.79;50.77;99531.72;5003374;28;20094;-64
2022/06/13 07:55:39;;;;;;;1.00;0.80;;;;;;;25.92;51.24;99527.31;4996627;28;20056;-64
2022/06/13 07:58:14;;;;;;;1.20;0.85;;;;;;;25.98;50.78;99520.03;4995923;28;20502;-63
2022/06/13 08:00:46;;;;;;;0.50;0.50;;;;;;;25.93;50.04;99517.72;4994799;28;20047;-63
2022/06/13 08:03:18;;;;;;;0.65;0.60;;;;;;;25.81;50.28;99518.53;4996509;28;20043;-64
2022/06/13 08:05:49;;;;;;;0.80;0.80;;;;;;;25.98;50.49;99520.88;4984131;28;20046;-63
2022/06/13 08:08:18;;;;;;;1.08;0.88;;;;;;;26.14;51.07;99521.53;4976586;28;20043;-64
2022/06/13 08:10:48;;;;;;;0.70;0.65;;;;;;;26.29;49.40;99520.53;4976905;28;20143;-64
2022/06/13 08:13:20;;;;;;;0.80;0.80;;;;;;;26.41;48.84;99517.06;4983010;28;20081;-63
2022/06/13 08:15:50;;;;;;;0.60;0.60;;;;;;;26.36;50.05;99500.00;4980586;28;20075;-63
2022/06/13 08:18:20;;;;;;;0.80;0.73;;;;;;;26.48;49.66;99530.56;4992821;28;20038;-64
2022/06/13 08:20:52;;;;;;;0.63;0.63;;;;;;;26.64;49.36;99523.34;4996104;28;20414;-63
2022/06/13 08:23:22;;;;;;;0.50;0.50;;;;;;;26.83;49.51;99522.91;4995953;28;20046;-63
2022/06/13 08:26:00;;;;;;;0.55;0.50;;;;;;;26.77;48.11;99525.97;4995942;28;20070;-64
2022/06/13 08:28:35;;;;;;;2.13;1.10;;;;;;;26.62;48.62;99525.22;4995779;28;20049;-64
2022/06/13 08:31:08;;;;;;;0.50;0.50;;;;;;;26.39;48.43;99529.44;4996000;28;20513;-64
2022/06/13 08:33:38;;;;;;;0.45;0.45;;;;;;;26.23;48.95;99531.38;4995871;28;20060;-64
2022/06/13 08:36:08;;;;;;;;;;;;;;;26.21;49.18;99517.56;4989091;28;20065;-64
2022/06/13 08:38:40;;;;;;;0.88;0.70;;;;;;;26.23;50.23;99526.16;4985240;28;19926;-64
2022/06/13 08:41:29;;;;;;;0.70;0.70;;;;;;;26.31;49.65;99518.63;4978873;28;20137;-64
2022/06/13 08:44:24;;;;;;;0.70;0.70;;;;;;;26.40;50.18;99512.75;4995514;28;20053;-64
2022/06/13 08:47:02;;;;;;;2.80;0.80;;;;;;;26.18;48.98;99502.06;4984213;28;20538;-63
2022/06/13 08:49:40;;;;;;;0.77;0.77;;;;;;;25.92;49.71;99500.31;4993218;28;20046;-64
2022/06/13 08:52:23;;;;;;;0.60;0.60;;;;;;;25.96;51.34;99505.25;4975818;28;20051;-63
2022/06/13 08:55:02;;;;;;;0.77;0.68;;;;;;;26.14;50.36;99505.00;4976745;28;20138;-63
2022/06/13 08:57:34;;;;;;;1.27;1.00;;;;;;;26.32;48.31;99503.78;4975808;28;20422;-63
2022/06/13 09:00:08;;;;;;;3.38;1.02;;;;;;;26.35;47.97;99499.16;4976373;28;20058;-63
2022/06/13 09:02:44;;;;;;;0.77;0.75;;;;;;;26.31;48.45;99497.69;4984163;28;20046;-63
2022/06/13 09:05:17;;;;;;;1.10;0.98;;;;;;;26.30;47.87;99496.00;4995112;28;20043;-64
2022/06/13 09:07:53;;;;;;;0.77;0.77;;;;;;;26.22;47.86;99498.31;4990881;28;20042;-64
2022/06/13 09:10:31;;;;;;;0.77;0.77;;;;;;;26.12;48.00;99502.50;4988360;28;20046;-63
2022/06/13 09:13:07;;;;;;;0.73;0.73;;;;;;;26.20;47.97;99489.72;4995269;28;20076;-63
2022/06/13 09:15:43;;;;;;;2.92;1.58;;;;;;;26.28;47.52;99492.66;4988258;28;20046;-65
2022/06/13 09:18:19;;;;;;;1.13;0.98;;;;;;;26.32;47.78;99493.31;4994027;28;20063;-63
2022/06/13 09:20:54;;;;;;;0.70;0.70;;;;;;;26.40;48.03;99490.97;4989824;28;20055;-64
2022/06/13 09:23:36;;;;;;;0.52;0.52;;;;;;;26.42;47.24;99483.84;4986206;28;20125;-63
2022/06/13 09:26:10;;;;;;;2.83;1.42;;;;;;;26.52;47.06;99480.50;4991661;28;20385;-63
2022/06/13 09:28:45;;;;;;;3.30;1.33;;;;;;;26.58;46.17;99480.09;4994074;28;20050;-63
2022/06/13 09:31:20;;;;;;;0.75;0.73;;;;;;;26.82;45.82;99471.50;4994721;28;20513;-63
2022/06/13 09:33:53;;;;;;;1.67;1.05;;;;;;;27.07;45.65;99481.88;4988166;28;20035;-63
2022/06/13 09:36:27;;;;;;;1.08;0.57;;;;;;;27.30;44.83;99475.00;4982564;28;20077;-62
2022/06/13 09:39:03;;;;;;;1.52;1.35;;;;;;;27.53;44.60;99475.03;4994962;28;20487;-65
2022/06/13 09:41:45;;;;;;;1.38;0.98;;;;;;;27.67;44.76;99477.47;4994371;28;20054;-64
2022/06/13 09:44:27;;;;;;;0.80;0.80;;;;;;;27.61;44.30;99472.69;4994566;28;20137;-64
2022/06/13 09:47:05;;;;;;;0.65;0.65;;;;;;;27.58;44.05;99467.66;4992379;28;20042;-64
2022/06/13 09:49:43;;;;;;;0.63;0.63;;;;;;;27.46;43.70;99473.81;4994497;28;20162;-63
2022/06/13 09:52:22;;;;;;;0.75;0.75;;;;;;;27.28;43.80;99475.13;4994517;28;20050;-63
2022/06/13 09:55:02;;;;;;;0.80;0.80;;;;;;;27.08;44.41;99479.19;4994281;28;20037;-63
2022/06/13 09:57:39;;;;;;;0.82;0.82;;;;;;;26.87;43.69;99485.09;4986097;28;20070;-64
2022/06/13 10:00:14;;;;;;;1.15;1.05;;;;;;;26.71;44.46;99479.22;4974883;28;20073;-63
2022/06/13 10:02:50;;;;;;;0.60;0.60;;;;;;;26.59;44.27;99476.53;4974860;28;20061;-64
2022/06/13 10:05:37;;;;;;;0.55;0.55;;;;;;;26.49;44.26;99475.47;4974976;28;20047;-64
2022/06/13 10:08:28;;;;;;;0.60;0.60;;;;;;;26.37;44.32;99475.50;4975025;28;20402;-63
2022/06/13 10:11:32;;;;;;;0.93;0.70;;;;;;;26.29;44.81;99468.19;4974469;28;20066;-64
2022/06/13 10:14:26;;;;;;;0.77;0.73;;;;;;;26.24;44.62;99465.03;4974726;28;20055;-64
2022/06/13 10:17:09;;;;;;;1.23;1.13;;;;;;;26.19;45.11;99467.13;4974798;28;20087;-64
2022/06/13 10:19:48;;;;;;;0.60;0.60;;;;;;;26.13;45.22;99457.06;4974674;28;20065;-63
2022/06/13 10:22:25;;;;;;;0.60;0.60;;;;;;;26.18;45.16;99448.91;4988696;28;20544;-64
2022/06/13 10:25:07;;;;;;;0.50;0.50;;;;;;;26.19;45.45;99443.56;4994309;28;20046;-63
2022/06/13 10:27:46;;;;;;;0.75;0.70;;;;;;;26.15;45.04;99438.66;4993992;28;20047;-63
2022/06/13 10:30:27;;;;;;;1.00;0.82;;;;;;;26.21;46.07;99446.91;4993990;28;20066;-63
2022/06/13 10:33:13;;;;;;;2.20;1.25;;;;;;;26.24;46.18;99444.09;4994189;28;20050;-63
2022/06/13 10:35:59;;;;;;;0.43;0.43;;;;;;;26.27;46.41;99443.91;4994093;28;20046;-64
2022/06/13 10:38:54;;;;;;;0.70;0.70;;;;;;;26.31;45.72;99439.28;4994383;28;20177;-64
2022/06/13 10:41:25;;;;;;;5.85;0.80;;;;;;;26.38;45.15;99430.88;4985452;28;20073;-64
2022/06/13 10:44:09;;;;;;;1.33;1.23;;;;;;;26.37;44.76;99418.72;4997264;28;20100;-63
2022/06/13 10:46:43;;;;;;;1.15;1.05;;;;;;;26.31;44.83;99413.94;4997830;28;20056;-65
2022/06/13 10:49:18;;;;;;;0.77;0.77;;;;;;;26.29;45.19;99410.59;4986605;28;20101;-63
2022/06/13 10:51:48;;;;;;;0.75;0.75;;;;;;;26.25;45.05;99419.56;4996938;28;20045;-63
2022/06/13 10:54:21;;;;;;;2.20;0.85;;;;;;;26.26;45.20;99416.03;4997980;28;20401;-63
2022/06/13 10:56:54;;;;;;;0.60;0.60;;;;;;;26.30;45.18;99427.16;4997071;28;20046;-64
2022/06/13 10:59:28;;;;;;;0.68;0.65;;;;;;;26.35;45.61;99423.25;4998130;28;20074;-63
2022/06/13 11:02:00;;;;;;;0.90;0.90;;;;;;;26.34;45.48;99408.50;4997437;28;20062;-64
2022/06/13 11:04:32;;;;;;;0.85;0.77;;;;;;;26.61;45.37;99424.03;4977989;28;20055;-64
2022/06/13 11:07:06;;;;;;;0.57;0.57;;;;;;;26.90;46.66;99427.25;4977963;28;20046;-64
2022/06/13 11:09:38;;;;;;;0.60;0.60;;;;;;;27.24;46.64;99436.97;4978948;28;20053;-64
2022/06/13 11:12:18;;;;;;;0.77;0.70;;;;;;;27.44;44.87;99438.16;4986438;28;20050;-64
2022/06/13 11:23:05;;;;;;;5.63;0.73;;;;;;;27.63;45.67;99436.69;4994518;28;20125;-64
2022/06/13 11:25:35;;;;;;;0.43;0.43;;;;;;;27.63;45.51;99439.31;4979549;28;20042;-64
2022/06/13 11:28:09;;;;;;;0.50;0.50;;;;;;;27.45;46.17;99432.78;4986304;28;20478;-64
2022/06/13 11:30:45;;;;;;;0.63;0.63;;;;;;;27.23;46.99;99430.06;4996602;28;20030;-64
2022/06/13 11:33:26;;;;;;;1.25;1.15;;;;;;;27.14;47.66;99430.72;4994476;28;20502;-64
2022/06/13 11:35:58;;;;;;;0.40;0.40;;;;;;;27.02;47.38;99431.59;5001807;28;20061;-64
2022/06/13 11:38:29;;;;;;;0.63;0.60;;;;;;;26.94;47.41;99433.94;4996124;28;20486;-64
2022/06/13 11:41:07;;;;;;;0.60;0.57;;;;;;;26.86;46.97;99415.31;4996427;28;20093;-63
2022/06/13 11:43:44;;;;;;;0.65;0.65;;;;;;;26.89;47.28;99433.44;4994378;28;20049;-64
2022/06/13 11:46:37;;;;;;;0.70;0.70;;;;;;;26.90;48.09;99432.50;4991521;28;20133;-64
2022/06/13 11:49:23;;;;;;;0.50;0.50;;;;;;;26.89;47.18;99415.09;4993963;28;20046;-64
2022/06/13 11:51:56;;;;;;;0.73;0.65;;;;;;;27.06;47.11;99417.34;4981451;28;20053;-64
2022/06/13 11:54:30;;;;;;;1.10;0.98;;;;;;;27.01;46.89;99415.06;4992687;28;20042;-63
2022/06/13 11:57:20;;;;;;;0.50;0.50;;;;;;;26.87;47.11;99411.75;4995856;28;20381;-63
2022/06/13 11:59:54;;;;;;;0.68;0.63;;;;;;;26.99;47.11;99405.63;4989188;28;20039;-64
2022/06/13 12:02:27;;;;;;;0.40;0.40;;;;;;;27.06;47.49;99404.25;4995848;28;20054;-63
2022/06/13 12:04:58;;;;;;;0.98;0.93;;;;;;;26.98;47.39;99403.94;4993336;28;20042;-63
2022/06/13 12:07:29;;;;;;;0.75;0.75;;;;;;;27.07;48.25;99408.50;4995748;28;20129;-64
2022/06/13 12:10:00;;;;;;;0.68;0.68;;;;;;;27.24;47.21;99414.22;4996342;28;20405;-64
2022/06/13 12:12:44;;;;;;;0.75;0.75;;;;;;;27.33;46.33;99410.06;4996195;28;20073;-68
2022/06/13 12:15:15;;;;;;;1.05;0.80;;;;;;;27.42;46.19;99414.69;4976745;28;20047;-67
2022/06/13 12:17:54;;;;;;;0.50;0.50;;;;;;;27.31;45.21;99411.97;4976476;28;20047;-68
2022/06/13 12:20:30;;;;;;;0.47;0.47;;;;;;;27.41;44.94;99414.78;4984009;28;20053;-68
2022/06/13 12:23:04;;;;;;;0.52;0.52;;;;;;;27.27;45.83;99389.56;4980408;28;20050;-68
2022/06/13 12:25:37;;;;;;;0.40;0.40;;;;;;;27.41;46.65;99420.88;4976491;28;20043;-68
2022/06/13 12:28:11;;;;;;;0.80;0.65;;;;;;;27.45;45.52;99411.81;4976570;28;20553;-68
2022/06/13 12:30:52;;;;;;;1.55;0.95;;;;;;;27.70;45.63;99393.31;4986517;28;20133;-69
2022/06/13 12:33:39;;;;;;;0.70;0.70;;;;;;;27.97;43.32;99410.53;4993470;28;20042;-69
2022/06/13 12:36:30;;;;;;;0.70;0.70;;;;;;;27.85;42.24;99376.41;4995165;28;20073;-69